Time;durP1;ratioP1;P1;durP2;ratioP2;P2;SDS_P1;SDS_P2;PMS_P1;PMS_P2;Temp;Humidity;BMP_temperature;BMP_pressure;BME280_temperature;BME280_humidity;BME280_pressure;Samples;Min_cycle;Max_cycle;Signal;HPM_P1;HPM_P2
2021/04/07 00:01:31;;;;;;;67.87;25.37;;;;;;;-2.81;71.83;97960.45;4157587;86;21193;-89
2021/04/07 00:07:32;;;;;;;56.47;21.30;;;;;;;-2.82;71.83;97957.00;4154157;85;21683;-91
2021/04/07 00:13:35;;;;;;;60.07;22.97;;;;;;;-2.86;71.99;97951.22;4152491;85;21117;-92
2021/04/07 00:19:36;;;;;;;48.73;20.70;;;;;;;-2.81;72.28;97956.44;4154517;85;21598;-92
2021/04/07 00:25:38;;;;;;;77.73;26.97;;;;;;;-2.83;72.04;97958.09;4153129;85;21300;-91
2021/04/07 00:31:39;;;;;;;89.87;27.17;;;;;;;-3.02;72.10;97956.80;4150663;85;21162;-92
2021/04/07 00:37:41;;;;;;;69.70;21.53;;;;;;;-3.10;72.75;97949.53;4156102;85;21169;-91
2021/04/07 00:43:43;;;;;;;76.40;22.33;;;;;;;-3.01;73.37;97945.78;4096722;87;21191;-92
2021/04/07 00:49:44;;;;;;;54.30;19.40;;;;;;;-2.96;73.01;97950.97;4086768;87;21235;-91
2021/04/07 00:55:46;;;;;;;40.27;18.00;;;;;;;-3.03;72.97;97962.70;4086943;87;21188;-92
2021/04/07 01:01:48;;;;;;;38.70;17.07;;;;;;;-3.11;73.41;97960.78;4092982;87;21777;-92
2021/04/07 01:07:50;;;;;;;34.17;17.60;;;;;;;-3.15;73.34;97967.08;4096731;87;21192;-91
2021/04/07 01:13:51;;;;;;;33.50;16.97;;;;;;;-3.16;73.30;97970.86;4095381;87;21188;-91
2021/04/07 01:19:53;;;;;;;32.73;15.90;;;;;;;-3.24;73.41;97976.41;4094600;86;21224;-92
2021/04/07 01:25:54;;;;;;;41.03;17.93;;;;;;;-3.39;73.19;97990.21;4098771;87;21836;-92
2021/04/07 01:31:57;;;;;;;35.70;17.03;;;;;;;-3.42;73.30;97989.49;4098233;87;21322;-91
2021/04/07 01:37:58;;;;;;;36.97;17.93;;;;;;;-3.57;73.25;97992.58;4082086;86;21204;-86
2021/04/07 01:44:00;;;;;;;42.50;18.30;;;;;;;-3.64;73.72;97992.22;4075018;87;21169;-85
2021/04/07 01:50:05;;;;;;;39.47;17.93;;;;;;;-3.63;73.85;97997.26;4174840;85;21201;-85
2021/04/07 01:56:06;;;;;;;39.47;18.53;;;;;;;-3.76;73.56;97994.11;4173390;85;21626;-85
2021/04/07 02:02:07;;;;;;;35.83;17.07;;;;;;;-3.82;73.82;98007.37;4176175;85;21150;-86
2021/04/07 02:08:10;;;;;;;29.97;14.57;;;;;;;-3.77;74.32;98012.59;4160030;85;22989;-85
2021/04/07 02:14:12;;;;;;;33.83;15.97;;;;;;;-3.64;74.63;98013.08;4175373;85;21185;-85
2021/04/07 02:20:16;;;;;;;33.17;16.10;;;;;;;-3.35;74.80;98012.56;4184096;85;21222;-85
2021/04/07 02:26:17;;;;;;;30.80;15.43;;;;;;;-3.09;74.75;98012.68;4180553;85;21201;-85
2021/04/07 02:32:21;;;;;;;37.10;16.10;;;;;;;-3.17;74.25;98010.75;4180162;85;21173;-85
2021/04/07 02:38:23;;;;;;;35.30;16.33;;;;;;;-3.20;74.57;98004.14;4175154;84;21355;-85
2021/04/07 02:44:24;;;;;;;38.80;16.13;;;;;;;-3.18;74.52;98009.19;4194409;84;21346;-85
2021/04/07 02:50:26;;;;;;;31.97;14.70;;;;;;;-3.11;74.50;98016.20;4194318;84;21303;-85
2021/04/07 02:56:31;;;;;;;37.10;15.93;;;;;;;-3.17;74.59;98018.25;4194671;84;21205;-85
2021/04/07 03:02:33;;;;;;;38.67;15.80;;;;;;;-3.17;74.70;98023.59;4194104;84;21233;-85
2021/04/07 03:08:34;;;;;;;33.37;12.17;;;;;;;-3.20;74.80;98025.56;4193026;84;21169;-84
2021/04/07 03:14:36;;;;;;;32.30;14.20;;;;;;;-3.23;75.28;98028.85;4190129;84;21654;-85
2021/04/07 03:20:37;;;;;;;29.00;13.97;;;;;;;-3.23;75.31;98035.55;4193651;84;21189;-85
2021/04/07 03:26:39;;;;;;;37.20;14.53;;;;;;;-3.12;75.41;98038.19;4191516;84;21652;-84
2021/04/07 03:32:41;;;;;;;32.33;14.03;;;;;;;-2.93;75.48;98039.28;4194602;84;21165;-85
2021/04/07 03:38:43;;;;;;;27.63;13.50;;;;;;;-2.88;75.10;98042.59;4211147;82;25720;-84
2021/04/07 03:44:44;;;;;;;34.90;14.57;;;;;;;-2.93;74.77;98045.43;4286130;83;21168;-85
2021/04/07 03:50:47;;;;;;;33.80;14.27;;;;;;;-3.15;74.75;98046.84;4282940;83;21213;-85
2021/04/07 03:56:49;;;;;;;43.60;17.03;;;;;;;-3.23;74.89;98057.73;4291627;83;21724;-85
2021/04/07 04:02:50;;;;;;;47.43;20.27;;;;;;;-3.30;74.91;98065.97;4214186;84;21166;-85
2021/04/07 04:08:52;;;;;;;47.23;19.17;;;;;;;-3.38;74.97;98076.88;4216521;84;21444;-85
2021/04/07 04:14:55;;;;;;;53.43;20.60;;;;;;;-3.34;75.06;98090.44;4291854;83;21145;-84
2021/04/07 04:20:56;;;;;;;34.97;16.37;;;;;;;-3.34;75.27;98077.05;4297097;83;21208;-85
2021/04/07 04:26:58;;;;;;;32.83;15.03;;;;;;;-3.30;75.00;98086.84;4211526;84;21206;-84
2021/04/07 04:33:00;;;;;;;40.00;17.83;;;;;;;-3.36;75.29;98088.60;4214813;84;21173;-86
2021/04/07 04:39:01;;;;;;;42.20;19.60;;;;;;;-3.30;75.07;98094.06;4217323;84;21200;-85
2021/04/07 04:45:05;;;;;;;41.53;18.33;;;;;;;-3.29;75.38;98101.78;4125523;85;21188;-85
2021/04/07 04:51:07;;;;;;;46.73;19.27;;;;;;;-3.23;75.58;98107.81;4178098;84;21686;-86
2021/04/07 04:57:08;;;;;;;36.23;16.27;;;;;;;-3.06;76.17;98107.91;4173169;85;21334;-85
2021/04/07 05:03:10;;;;;;;33.37;15.30;;;;;;;-2.79;76.66;98118.97;4228330;84;21801;-85
2021/04/07 05:09:11;;;;;;;32.97;16.40;;;;;;;-2.56;76.76;98125.28;4183528;84;29347;-85
2021/04/07 05:15:14;;;;;;;29.83;14.60;;;;;;;-2.30;76.93;98126.13;4180181;84;21321;-85
2021/04/07 05:21:16;;;;;;;34.83;18.07;;;;;;;-2.04;77.08;98126.98;4215158;82;21156;-85
2021/04/07 05:27:17;;;;;;;33.50;17.37;;;;;;;-1.80;76.85;98130.52;4231085;83;21300;-86
2021/04/07 05:33:20;;;;;;;38.90;18.70;;;;;;;-1.60;76.54;98137.96;4291571;82;21182;-85
2021/04/07 05:39:22;;;;;;;36.57;18.13;;;;;;;-1.44;76.44;98135.58;4247940;82;21625;-85
2021/04/07 05:45:23;;;;;;;35.07;18.23;;;;;;;-1.23;76.38;98144.00;4195561;84;21145;-85
2021/04/07 05:51:25;;;;;;;37.93;19.20;;;;;;;-0.99;76.85;98151.53;4254781;83;21765;-85
2021/04/07 05:57:26;;;;;;;50.97;22.30;;;;;;;-0.75;76.95;98155.82;4292715;82;21184;-85
2021/04/07 06:03:28;;;;;;;49.27;24.77;;;;;;;-0.58;76.75;98167.85;4298897;82;21586;-86
2021/04/07 06:09:29;;;;;;;43.97;23.40;;;;;;;-0.45;76.92;98161.45;4322508;81;21238;-85
2021/04/07 06:15:32;;;;;;;46.47;24.40;;;;;;;-0.32;76.80;98161.80;4320882;81;21326;-86
2021/04/07 06:21:35;;;;;;;43.53;23.00;;;;;;;-0.09;76.90;98169.81;4311131;81;21306;-86
2021/04/07 06:27:36;;;;;;;45.33;23.37;;;;;;;0.62;77.49;98171.39;4331659;81;22647;-86
2021/04/07 06:33:38;;;;;;;34.38;19.50;;;;;;;1.43;77.37;98175.56;4282161;80;38423;-86
2021/04/07 06:39:40;;;;;;;34.60;18.67;;;;;;;2.08;75.68;98174.03;4251374;82;21199;-86
2021/04/07 06:45:41;;;;;;;28.27;15.13;;;;;;;1.80;74.76;98185.84;4267014;82;21154;-86
2021/04/07 06:51:43;;;;;;;33.42;16.75;;;;;;;1.63;75.15;98192.22;4270340;82;21153;-87
2021/04/07 06:57:45;;;;;;;27.82;16.17;;;;;;;1.86;74.77;98200.69;4264360;82;21171;-86
2021/04/07 07:03:47;;;;;;;32.95;17.65;;;;;;;1.96;74.83;98201.02;4274067;82;21156;-86
2021/04/07 07:09:55;;;;;;;33.88;17.50;;;;;;;2.23;74.54;98209.78;4259272;82;21346;-87
2021/04/07 07:15:58;;;;;;;28.83;15.05;;;;;;;2.16;73.81;98216.88;4266157;82;21164;-86
2021/04/07 07:22:06;;;;;;;30.27;15.55;;;;;;;2.02;73.08;98225.30;4265472;82;21173;-87
2021/04/07 07:28:06;;;;;;;38.85;19.60;;;;;;;1.99;72.94;98275.16;4275808;82;21180;-86
2021/04/07 07:34:08;;;;;;;28.77;15.60;;;;;;;1.70;73.24;98229.44;4265408;82;21366;-86
2021/04/07 07:40:24;;;;;;;28.75;16.32;;;;;;;1.54;73.94;98237.39;4266765;82;21370;-86
2021/04/07 07:46:27;;;;;;;19.98;11.97;;;;;;;1.90;74.70;98256.34;4281501;82;21164;-86
2021/04/07 07:52:32;;;;;;;29.77;17.80;;;;;;;2.58;74.22;98260.06;4277955;82;21659;-87
2021/04/07 07:58:51;;;;;;;29.05;16.07;;;;;;;2.64;73.87;98264.09;4268054;82;21171;-87
2021/04/07 08:04:53;;;;;;;25.55;15.40;;;;;;;2.58;73.22;98265.46;4184351;83;50414;-86
2021/04/07 08:11:05;;;;;;;28.30;16.70;;;;;;;2.55;73.66;98266.91;4183302;84;22165;-87
2021/04/07 08:17:32;;;;;;;35.28;20.55;;;;;;;2.79;73.38;98269.58;4125301;85;21322;-87
2021/04/07 08:23:35;;;;;;;;;;;;;;;3.01;73.46;98263.67;4120874;85;21179;-86
2021/04/07 08:29:37;;;;;;;28.47;16.90;;;;;;;3.17;72.57;98264.52;4223457;83;20193;-87
2021/04/07 08:42:44;;;;;;;21.35;13.55;;;;;;;3.74;72.14;98264.14;4195726;80;21194;-88
2021/04/07 08:48:52;;;;;;;21.02;13.22;;;;;;;4.68;71.08;98255.39;4149955;84;21314;-87
2021/04/07 08:54:59;;;;;;;19.32;11.55;;;;;;;5.12;69.36;98259.42;4153846;84;21159;-88
2021/04/07 09:01:01;;;;;;;17.42;10.50;;;;;;;5.86;68.37;98266.30;4152635;84;21181;-86
2021/04/07 09:07:03;;;;;;;17.05;10.90;;;;;;;5.85;66.65;98268.82;4165040;83;21601;-86
2021/04/07 09:13:09;;;;;;;16.75;11.00;;;;;;;6.03;64.72;98261.19;4149066;84;21187;-85
2021/04/07 09:19:26;;;;;;;21.65;11.33;;;;;;;5.78;63.70;98272.16;4153781;84;21311;-86
2021/04/07 09:25:31;;;;;;;18.02;10.98;;;;;;;6.99;65.63;98272.95;4153434;84;21297;-88
2021/04/07 09:31:35;;;;;;;17.40;11.40;;;;;;;6.66;63.04;98281.81;4132194;84;21189;-86
2021/04/07 09:37:39;;;;;;;19.48;10.53;;;;;;;6.32;63.83;98274.12;4157818;84;21179;-87
2021/04/07 09:43:41;;;;;;;20.85;11.30;;;;;;;7.06;62.79;98267.05;4146175;84;21344;-87
2021/04/07 09:49:43;;;;;;;15.35;8.98;;;;;;;8.62;61.39;98253.84;4157480;84;21163;-87
2021/04/07 09:55:48;;;;;;;9.55;5.78;;;;;;;8.99;59.94;98258.58;4143470;84;21630;-86
2021/04/07 10:01:48;;;;;;;7.15;4.40;;;;;;;8.57;58.02;98291.02;4133919;84;21214;-87
2021/04/07 10:07:49;;;;;;;19.20;8.63;;;;;;;6.06;59.31;98293.06;4131941;84;21184;-86
2021/04/07 10:13:51;;;;;;;11.78;7.47;;;;;;;4.43;61.06;98314.42;4131218;84;21171;-86
2021/04/07 10:19:53;;;;;;;9.80;5.22;;;;;;;3.48;62.93;98296.28;4139580;84;21652;-87
2021/04/07 10:26:03;;;;;;;10.00;4.47;;;;;;;3.14;62.38;98286.84;4143113;84;22341;-88
2021/04/07 10:32:09;;;;;;;6.12;3.87;;;;;;;4.45;63.28;98282.34;4149472;84;21165;-87
2021/04/07 10:38:13;;;;;;;10.40;5.87;;;;;;;6.61;61.79;98273.20;4150290;84;21617;-89
2021/04/07 10:44:28;;;;;;;13.72;7.72;;;;;;;7.79;58.54;98270.42;4169701;83;21216;-88
2021/04/07 10:50:34;;;;;;;16.90;9.60;;;;;;;8.55;57.82;98264.72;4191919;83;21244;-88
2021/04/07 10:56:38;;;;;;;16.25;8.70;;;;;;;9.45;58.01;98263.66;4266298;81;31362;-88
2021/04/07 11:02:47;;;;;;;11.68;6.42;;;;;;;8.55;54.96;98293.36;4297589;81;21169;-88
2021/04/07 11:08:52;;;;;;;15.40;7.83;;;;;;;8.57;55.34;98292.38;4299406;82;21192;-89
2021/04/07 11:14:54;;;;;;;13.70;7.90;;;;;;;9.66;55.16;98295.75;4290246;81;21145;-89
2021/04/07 11:20:57;;;;;;;15.63;9.00;;;;;;;10.47;53.13;98284.40;4292376;81;21190;-88
2021/04/07 11:26:59;;;;;;;13.40;9.15;;;;;;;8.86;54.15;98307.81;4302272;81;21094;-87
2021/04/07 11:33:03;;;;;;;14.00;9.10;;;;;;;7.04;56.05;98318.90;4298251;81;21146;-87
2021/04/07 11:45:11;;;;;;;7.62;5.08;;;;;;;4.90;58.96;98349.64;4300261;81;22027;-88
2021/04/07 11:51:19;;;;;;;14.03;8.03;;;;;;;3.81;60.22;98344.17;4291395;81;21598;-87
2021/04/07 11:57:21;;;;;;;15.05;9.45;;;;;;;3.66;61.01;98354.97;4296996;81;21793;-87
2021/04/07 12:03:22;;;;;;;14.45;10.03;;;;;;;3.64;61.58;98358.58;4304336;79;24193;-88
2021/04/07 12:09:24;;;;;;;13.88;7.47;;;;;;;3.68;62.29;98356.19;4316678;82;21166;-88
2021/04/07 12:15:27;;;;;;;13.48;7.47;;;;;;;3.80;62.91;98348.03;4298334;82;21193;-87
2021/04/07 12:22:00;;;;;;;16.37;7.97;;;;;;;3.92;62.98;98338.48;4308951;82;21639;-88
2021/04/07 12:28:02;;;;;;;16.67;9.15;;;;;;;4.13;63.85;98339.05;4215497;84;21707;-88
2021/04/07 12:34:04;;;;;;;16.77;9.45;;;;;;;4.33;64.38;98343.98;4216681;80;33491;-88
2021/04/07 12:40:06;;;;;;;13.90;7.35;;;;;;;4.82;65.48;98336.46;4226251;83;21241;-87
2021/04/07 12:46:16;;;;;;;12.18;6.50;;;;;;;5.43;63.34;98325.80;4212205;82;21616;-87
2021/04/07 12:52:17;;;;;;;12.55;7.33;;;;;;;5.56;62.96;98314.22;4178975;83;21129;-88
2021/04/07 12:58:21;;;;;;;13.40;7.70;;;;;;;5.20;61.80;98328.20;4171264;78;29744;-89
2021/04/07 13:04:23;;;;;;;12.40;7.12;;;;;;;4.52;62.88;98334.03;4194191;84;21350;-88
2021/04/07 13:10:24;;;;;;;7.60;4.55;;;;;;;4.50;62.46;98370.17;4192273;84;21630;-89
2021/04/07 13:16:26;;;;;;;13.35;6.60;;;;;;;3.96;62.16;98373.20;4171450;83;21193;-87
2021/04/07 13:22:28;;;;;;;11.43;6.03;;;;;;;3.76;62.59;98378.27;4155174;84;21197;-87
2021/04/07 13:28:38;;;;;;;9.10;4.72;;;;;;;3.81;62.59;98368.55;4161638;84;21176;-87
2021/04/07 13:35:00;;;;;;;9.90;4.85;;;;;;;4.05;63.03;98371.70;4177949;84;21197;-88
2021/04/07 13:47:06;;;;;;;8.60;4.00;;;;;;;5.15;60.96;98369.17;4173958;84;21189;-88
2021/04/07 13:53:09;;;;;;;7.42;2.98;;;;;;;5.38;59.96;98368.70;4192859;84;21173;-88
2021/04/07 13:59:11;;;;;;;5.37;2.75;;;;;;;5.26;58.67;98368.25;4184973;84;21142;-87
2021/04/07 14:05:13;;;;;;;6.90;3.45;;;;;;;5.02;58.28;98376.64;4067698;87;21195;-89
2021/04/07 14:11:15;;;;;;;6.97;3.30;;;;;;;5.28;57.65;98377.42;4176217;84;21351;-89
2021/04/07 14:17:16;;;;;;;7.45;4.20;;;;;;;5.22;57.70;98386.39;4079261;87;21217;-90
2021/04/07 14:23:18;;;;;;;8.33;3.95;;;;;;;5.11;57.50;98393.50;4188021;84;21144;-89
2021/04/07 14:29:20;;;;;;;9.55;4.62;;;;;;;4.91;57.38;98393.80;4176011;84;21157;-88
2021/04/07 14:35:22;;;;;;;11.55;6.70;;;;;;;4.82;57.57;98399.42;4141962;86;21300;-88
2021/04/07 14:41:23;;;;;;;9.65;5.37;;;;;;;4.52;57.83;98392.30;4172149;84;21643;-88
2021/04/07 14:47:25;;;;;;;14.05;7.70;;;;;;;4.30;58.71;98400.22;4097708;86;21228;-89
2021/04/07 14:53:28;;;;;;;18.23;8.80;;;;;;;4.20;59.17;98411.56;4206710;84;21283;-89
2021/04/07 14:59:30;;;;;;;21.12;9.23;;;;;;;3.99;60.64;98421.28;4173792;84;21175;-86
2021/04/07 15:13:00;;;;;;;21.23;11.60;;;;;;;3.56;63.56;98421.75;4195844;83;21149;-88
2021/04/07 15:19:02;;;;;;;17.98;8.18;;;;;;;3.15;65.18;98437.16;4176261;84;21152;-89
2021/04/07 15:25:10;;;;;;;20.72;10.88;;;;;;;3.12;64.52;98443.25;4193290;84;21204;-88
2021/04/07 15:31:17;;;;;;;14.40;7.35;;;;;;;2.90;66.07;98436.14;4198096;84;21170;-87
2021/04/07 15:37:18;;;;;;;23.20;12.80;;;;;;;2.73;66.14;98431.76;4195115;84;21627;-88
2021/04/07 15:43:20;;;;;;;26.80;14.70;;;;;;;2.82;66.26;98427.58;4118780;84;21171;-88
2021/04/07 15:49:22;;;;;;;23.73;11.05;;;;;;;2.96;67.13;98430.77;4093238;85;21509;-89
2021/04/07 15:55:23;;;;;;;28.65;14.05;;;;;;;3.09;66.65;98449.34;4086200;87;21197;-88
2021/04/07 16:01:25;;;;;;;23.18;10.93;;;;;;;3.40;66.71;98452.79;4112429;85;21200;-87
2021/04/07 16:07:27;;;;;;;21.45;10.58;;;;;;;3.46;66.06;98450.06;4169906;84;21563;-87
2021/04/07 16:13:28;;;;;;;17.77;10.45;;;;;;;3.37;66.38;98448.06;4200986;84;21124;-87
2021/04/07 16:19:30;;;;;;;18.20;9.48;;;;;;;3.32;66.97;98451.58;4190644;84;21590;-87
2021/04/07 16:25:33;;;;;;;15.83;7.72;;;;;;;3.20;66.98;98447.75;4202249;84;21113;-87
2021/04/07 16:31:44;;;;;;;20.02;10.45;;;;;;;3.13;67.16;98454.86;4267457;82;28520;-88
2021/04/07 16:37:46;;;;;;;20.62;8.50;;;;;;;2.96;66.96;98453.74;4263308;83;21156;-87
2021/04/07 16:43:48;;;;;;;24.82;10.80;;;;;;;2.82;66.72;98450.55;4253932;83;21170;-87
2021/04/07 16:49:50;;;;;;;19.42;9.40;;;;;;;2.68;66.81;98459.00;4180891;84;21198;-86
2021/04/07 16:55:51;;;;;;;20.25;9.88;;;;;;;2.50;67.04;98456.28;4183114;84;21211;-87
2021/04/07 17:01:54;;;;;;;15.85;8.18;;;;;;;2.45;67.12;98461.89;4187810;84;21320;-90
2021/04/07 17:07:55;;;;;;;17.00;8.38;;;;;;;2.39;67.07;98474.04;4170426;84;21171;-89
2021/04/07 17:13:57;;;;;;;20.65;10.18;;;;;;;2.30;67.23;98478.72;4152922;84;21690;-85
2021/04/07 17:19:59;;;;;;;23.02;10.58;;;;;;;2.25;67.27;98482.20;4152251;84;21203;-86
2021/04/07 17:26:01;;;;;;;19.57;10.80;;;;;;;2.21;67.60;98493.45;4151350;85;21159;-84
2021/04/07 17:32:03;;;;;;;24.18;11.50;;;;;;;2.25;67.78;98523.52;4154019;85;21163;-84
2021/04/07 17:38:28;;;;;;;27.73;13.53;;;;;;;2.25;67.78;98523.52;4168369;84;21677;-86
2021/04/07 17:44:30;;;;;;;19.23;11.10;;;;;;;2.31;67.21;98555.14;4037793;88;21677;-86
2021/04/07 17:50:32;;;;;;;27.42;13.65;;;;;;;1.98;68.02;98559.70;4156430;86;21173;-84
2021/04/07 17:56:33;;;;;;;24.27;10.60;;;;;;;1.74;69.27;98567.08;4156193;86;21331;-84
2021/04/07 18:02:35;;;;;;;25.80;11.78;;;;;;;1.66;69.87;98570.62;4155980;86;21809;-85
2021/04/07 18:08:37;;;;;;;29.52;15.45;;;;;;;1.35;70.30;98562.06;4156084;86;21189;-85
2021/04/07 18:14:39;;;;;;;27.25;14.43;;;;;;;1.44;70.60;98595.20;4165522;84;21192;-90
2021/04/07 18:20:46;;;;;;;24.77;11.45;;;;;;;1.40;71.06;98613.94;4174265;84;21671;-90
2021/04/07 18:26:48;;;;;;;18.00;9.33;;;;;;;1.32;71.64;98642.27;4167599;84;21165;-91
2021/04/07 18:32:49;;;;;;;18.02;9.73;;;;;;;1.22;71.81;98620.49;4176557;84;21658;-92
2021/04/07 18:38:51;;;;;;;28.12;14.33;;;;;;;1.00;72.38;98607.23;4186677;84;21209;-91
2021/04/07 18:44:53;;;;;;;24.67;11.75;;;;;;;1.00;72.38;98607.23;4141655;85;21208;-93
2021/04/07 18:50:55;;;;;;;25.43;13.40;;;;;;;1.08;72.71;98622.59;4121455;86;21243;-90
2021/04/07 18:56:57;;;;;;;27.70;13.65;;;;;;;1.07;72.81;98621.58;4017220;87;21614;-92
2021/04/07 19:02:58;;;;;;;34.16;14.06;;;;;;;1.15;72.69;98638.28;4050339;85;9999933;-92
2021/04/07 19:09:00;;;;;;;28.07;11.88;;;;;;;1.11;74.12;98669.70;4162522;85;21482;-92
2021/04/07 19:15:05;;;;;;;27.87;11.30;;;;;;;1.00;73.99;98689.45;4165228;85;21548;-92
2021/04/07 19:21:07;;;;;;;25.30;12.23;;;;;;;0.94;74.37;98704.20;4161560;85;21193;-91
2021/04/07 19:27:09;;;;;;;24.75;13.72;;;;;;;0.83;74.66;98686.01;4149857;85;21228;-92
2021/04/07 19:33:11;;;;;;;31.35;14.23;;;;;;;0.85;74.71;98703.43;4140927;85;21501;-92
2021/04/07 19:39:12;;;;;;;26.30;14.10;;;;;;;0.81;75.28;98718.66;4170175;84;22024;-91
2021/04/07 19:45:15;;;;;;;28.95;13.65;;;;;;;0.84;75.30;98713.98;4175658;85;21325;-92
2021/04/07 19:51:16;;;;;;;21.82;11.65;;;;;;;0.81;75.68;98695.76;4163517;85;21167;-92
2021/04/07 19:57:19;;;;;;;23.32;11.80;;;;;;;0.74;75.78;98712.94;4155443;85;21772;-92
2021/04/07 20:03:21;;;;;;;22.52;12.43;;;;;;;0.73;75.54;98722.69;4051273;85;9999977;-93
2021/04/07 20:09:32;;;;;;;27.48;13.43;;;;;;;0.75;76.16;98717.20;4162523;85;21765;-93
2021/04/07 20:15:34;;;;;;;18.32;9.73;;;;;;;0.67;76.39;98715.88;4174742;85;21372;-91
2021/04/07 20:21:36;;;;;;;23.25;12.05;;;;;;;0.67;76.39;98715.88;4163055;85;21207;-92
2021/04/07 20:27:38;;;;;;;18.60;9.50;;;;;;;0.64;76.45;98714.63;4161742;85;21221;-92
2021/04/07 20:33:40;;;;;;;15.68;7.62;;;;;;;0.59;79.24;98708.59;4176653;85;21632;-92
2021/04/07 20:39:41;;;;;;;14.50;6.62;;;;;;;0.35;79.03;98701.50;4165791;85;21238;-85
2021/04/07 20:45:47;;;;;;;11.30;5.90;;;;;;;0.36;79.49;98723.30;4162265;85;21315;-85
2021/04/07 20:52:03;;;;;;;11.45;5.08;;;;;;;0.32;79.01;98725.83;4154916;85;21185;-85
2021/04/07 20:58:05;;;;;;;10.45;5.33;;;;;;;0.27;78.42;98721.93;4088190;86;21201;-85
2021/04/07 21:04:07;;;;;;;13.33;6.73;;;;;;;0.18;79.64;98727.86;4045769;87;21220;-86
2021/04/07 21:10:10;;;;;;;16.87;7.17;;;;;;;0.14;79.19;98718.84;4113977;85;21602;-85
2021/04/07 21:16:12;;;;;;;14.15;7.10;;;;;;;0.19;79.61;98729.44;4061355;86;21189;-85
2021/04/07 21:22:13;;;;;;;16.93;7.90;;;;;;;0.17;79.05;98725.48;4125903;86;21195;-85
2021/04/07 21:28:15;;;;;;;17.00;8.93;;;;;;;0.05;79.51;98720.69;4129653;85;21637;-85
2021/04/07 21:34:16;;;;;;;17.65;9.10;;;;;;;0.06;79.54;98729.02;4121188;86;21222;-85
2021/04/07 21:40:18;;;;;;;16.00;8.50;;;;;;;-0.01;79.87;98730.02;4118431;85;21181;-86
2021/04/07 21:46:19;;;;;;;18.27;8.25;;;;;;;-0.02;79.81;98735.94;4131985;85;21214;-85
2021/04/07 21:52:21;;;;;;;15.25;7.50;;;;;;;0.00;80.00;98736.43;4138052;85;21673;-84
2021/04/07 21:58:23;;;;;;;17.40;8.20;;;;;;;-0.03;79.55;98729.53;4121896;85;21140;-85
2021/04/07 22:04:25;;;;;;;17.13;8.37;;;;;;;-0.12;80.06;98732.20;4128401;85;21290;-85
2021/04/07 22:10:35;;;;;;;19.63;8.50;;;;;;;-0.12;80.83;98734.09;4130033;85;21570;-85
2021/04/07 22:16:36;;;;;;;15.70;7.97;;;;;;;-0.20;81.06;98728.93;4142008;85;21610;-85
2021/04/07 22:22:41;;;;;;;17.03;8.20;;;;;;;-0.26;81.31;98723.99;4090977;85;21720;-84
2021/04/07 22:28:43;;;;;;;15.43;8.50;;;;;;;-0.28;80.70;98730.23;4114714;85;21264;-85
2021/04/07 22:34:46;;;;;;;39.73;16.50;;;;;;;-0.28;80.71;98730.23;4051795;87;21460;-84
2021/04/07 22:40:47;;;;;;;38.33;14.30;;;;;;;-0.29;80.04;98729.45;4123516;84;21602;-84
2021/04/07 22:46:49;;;;;;;28.77;9.63;;;;;;;-0.33;79.67;98730.39;4174052;85;21317;-84
2021/04/07 22:52:50;;;;;;;42.23;15.00;;;;;;;-0.36;79.66;98735.05;4163643;84;21161;-85
2021/04/07 22:58:52;;;;;;;38.57;12.83;;;;;;;-0.33;79.35;98729.81;4160202;85;21569;-84
2021/04/07 23:04:53;;;;;;;23.50;9.57;;;;;;;-0.31;79.42;98734.34;4167791;85;21188;-84
2021/04/07 23:10:55;;;;;;;18.07;8.70;;;;;;;-0.44;79.26;98731.77;4170451;85;21179;-83
2021/04/07 23:16:56;;;;;;;25.63;10.50;;;;;;;-0.56;79.28;98729.63;4156118;85;21686;-84
2021/04/07 23:22:58;;;;;;;30.33;10.90;;;;;;;-0.80;79.13;98732.44;4188552;84;21211;-84
2021/04/07 23:28:59;;;;;;;38.50;15.20;;;;;;;-0.92;79.57;98734.32;4174713;85;21309;-84
2021/04/07 23:35:01;;;;;;;39.07;14.20;;;;;;;-1.03;79.32;98726.27;4161708;84;21614;-84
2021/04/07 23:41:03;;;;;;;26.03;10.37;;;;;;;-0.97;79.11;98721.01;4170164;85;21335;-84
2021/04/07 23:47:04;;;;;;;24.87;10.63;;;;;;;-1.02;78.99;98725.72;4132257;85;21754;-84
2021/04/07 23:53:06;;;;;;;19.77;9.03;;;;;;;-1.06;79.11;98716.13;4167862;85;21195;-84
2021/04/07 23:59:07;;;;;;;23.33;9.20;;;;;;;-1.13;79.14;98721.16;4167350;85;21192;-84
